EWR weather

Newark Liberty International Airport
Newark, New Jersey, United States

Public forecast

Using degrees Fahrenheit for public forecast. Weather courtesy of forecast.io.

METAR (pilot weather report)

Retrieved 2017/11/19 15:51 UTC (60 minutes ago):

KEWR 191551Z 28021G34KT 10SM BKN048 11/00 A2945 RMK AO2 PK WND 28041/1459 SLP973 T01060000

TAF (pilot weather forecast)

Retrieved 2017/11/19 12:30 UTC (4 hours ago):

TAF KEWR 191127Z 1912/2018 24020G37KT P6SM SCT025 OVC040 TEMPO 1912/1913 BKN020 FM191500 28022G37KT P6SM BKN040 FM191900 28022G34KT P6SM SCT050 FM192300 29017G27KT P6SM SCT050 FM200600 29015G24KT P6SM FEW050 FM201400 29018G28KT P6SM BKN050